createdAt,value
2022-08-09T00:01:10.646Z,83.34
2022-08-09T00:04:06.003Z,83.95
2022-08-09T00:06:29.267Z,83.99
2022-08-09T00:08:58.599Z,84.13
2022-08-09T00:11:27.823Z,84.69
2022-08-09T00:14:11.672Z,84.34
2022-08-09T00:16:44.523Z,83.99
2022-08-09T00:19:14.003Z,84.37
2022-08-09T00:21:56.169Z,84.34
2022-08-09T00:24:24.385Z,84.26
2022-08-09T00:26:50.911Z,84.25
2022-08-09T00:29:39.215Z,84.45
2022-08-09T00:32:04.026Z,84.46
2022-08-09T00:34:32.664Z,84.42
2022-08-09T00:37:00.264Z,84.96
2022-08-09T00:40:14.087Z,85.37
2022-08-09T00:44:19.305Z,84.88
2022-08-09T00:44:59.674Z,84.75
2022-08-09T00:47:33.145Z,84.92
2022-08-09T00:50:02.854Z,84.68
2022-08-09T00:52:31.091Z,85.04
2022-08-09T00:55:00.410Z,85.13
2022-08-09T00:57:34.343Z,85.09
2022-08-09T01:00:20.413Z,85.28
2022-08-09T01:02:53.647Z,85.16
2022-08-09T01:05:53.084Z,85.25
2022-08-09T01:08:30.715Z,85.51
2022-08-09T01:11:17.702Z,85.49
2022-08-09T01:13:59.841Z,85.80
2022-08-09T01:16:35.131Z,86.13
2022-08-09T01:19:42.502Z,85.99
2022-08-09T01:22:30.809Z,86.18
2022-08-09T01:25:29.428Z,85.71
2022-08-09T01:27:59.604Z,85.39
2022-08-09T01:30:35.716Z,85.02
2022-08-09T01:33:18.148Z,84.95
2022-08-09T01:35:59.207Z,85.06
2022-08-09T01:38:29.858Z,85.57
2022-08-09T01:41:13.384Z,85.94
2022-08-09T01:43:51.161Z,86.35
2022-08-09T01:46:32.460Z,86.43
2022-08-09T01:49:10.367Z,87.21
2022-08-09T01:51:44.317Z,87.29
2022-08-09T01:54:13.726Z,87.59
2022-08-09T01:56:51.504Z,87.96
2022-08-09T01:59:21.307Z,88.13
2022-08-09T02:01:58.113Z,88.45
2022-08-09T02:04:28.390Z,88.41
2022-08-09T02:07:18.323Z,88.54
2022-08-09T02:10:11.000Z,88.28
2022-08-09T02:12:39.286Z,88.79
2022-08-09T02:15:08.143Z,89.07
2022-08-09T02:18:01.271Z,89.46
2022-08-09T02:20:32.857Z,89.25
2022-08-09T02:23:14.678Z,89.11
2022-08-09T02:25:52.560Z,89.27
2022-08-09T02:28:40.523Z,89.27
2022-08-09T02:31:18.511Z,89.35
2022-08-09T02:34:06.463Z,89.46
2022-08-09T02:36:44.543Z,89.03
2022-08-09T02:39:33.220Z,89.43
2022-08-09T02:42:11.607Z,89.50
2022-08-09T02:44:41.393Z,89.85
2022-08-09T02:47:12.100Z,89.53
2022-08-09T02:50:02.080Z,89.88
2022-08-09T02:52:40.285Z,90.07
2022-08-09T02:55:21.059Z,90.02
2022-08-09T02:58:00.476Z,89.77
2022-08-09T03:00:47.735Z,89.24
2022-08-09T03:03:37.271Z,89.20
2022-08-09T03:06:14.806Z,88.83
2022-08-09T03:08:46.138Z,89.29
2022-08-09T03:12:06.671Z,89.73
2022-08-09T03:14:07.751Z,89.61
2022-08-09T03:16:41.732Z,88.81
2022-08-09T03:19:14.528Z,88.47
2022-08-09T03:21:57.830Z,89.18
2022-08-09T03:24:31.479Z,89.00
2022-08-09T03:27:13.483Z,88.36
2022-08-09T03:29:57.680Z,87.95
2022-08-09T03:32:30.947Z,87.74
2022-08-09T03:34:59.284Z,88.16
2022-08-09T03:37:55.774Z,87.98
2022-08-09T03:40:13.466Z,88.12
2022-08-09T03:42:44.432Z,88.00
2022-08-09T03:45:11.839Z,88.14
2022-08-09T03:47:41.831Z,88.11
2022-08-09T03:50:12.112Z,88.42
2022-08-09T03:52:43.714Z,89.25
2022-08-09T03:55:14.403Z,89.69
2022-08-09T03:57:53.554Z,89.89
2022-08-09T04:00:29.116Z,89.95
2022-08-09T04:02:57.446Z,90.21
2022-08-09T04:05:27.619Z,90.18
2022-08-09T04:07:57.275Z,90.43
2022-08-09T04:10:29.519Z,90.83
2022-08-09T04:13:00.705Z,91.03
2022-08-09T04:15:42.637Z,91.26
2022-08-09T04:18:18.083Z,91.64
2022-08-09T04:20:50.610Z,91.32
2022-08-09T04:23:18.035Z,91.06
2022-08-09T04:25:52.153Z,91.26
2022-08-09T04:28:33.367Z,91.21
2022-08-09T04:31:05.738Z,91.54
2022-08-09T04:33:52.977Z,90.78
2022-08-09T04:36:25.934Z,88.05
2022-08-09T04:39:00.534Z,85.18
2022-08-09T04:41:32.125Z,81.75
2022-08-09T04:44:05.829Z,81.94
2022-08-09T04:46:56.911Z,82.82
2022-08-09T04:49:30.236Z,84.02
2022-08-09T04:52:07.383Z,84.07
2022-08-09T04:54:36.060Z,84.66
2022-08-09T04:57:03.762Z,85.72
2022-08-09T04:59:30.651Z,86.68
2022-08-09T05:01:57.223Z,87.14
2022-08-09T05:04:23.857Z,86.94
2022-08-09T05:06:57.801Z,86.40
2022-08-09T05:09:24.578Z,85.85
2022-08-09T05:11:51.484Z,85.52
2022-08-09T05:14:18.538Z,81.87
2022-08-09T05:16:58.967Z,72.81
2022-08-09T05:19:31.891Z,67.99
2022-08-09T05:23:50.605Z,64.81
2022-08-09T05:25:00.854Z,63.27
2022-08-09T05:27:27.835Z,61.39
2022-08-09T05:29:56.710Z,61.33
2022-08-09T05:32:23.583Z,60.23
2022-08-09T05:34:50.273Z,59.51
2022-08-09T05:37:18.179Z,58.25
2022-08-09T05:39:44.856Z,56.89
2022-08-09T05:42:20.555Z,55.86
2022-08-09T05:44:53.651Z,56.88
2022-08-09T05:47:22.883Z,57.13
2022-08-09T05:50:30.732Z,57.77
2022-08-09T05:52:42.008Z,57.03
2022-08-09T05:55:21.286Z,57.19
2022-08-09T05:57:51.145Z,56.63
2022-08-09T06:00:23.251Z,56.73
2022-08-09T06:02:54.346Z,57.15
2022-08-09T06:05:30.938Z,58.89
2022-08-09T06:08:11.122Z,59.07
2022-08-09T06:10:38.128Z,58.93
2022-08-09T06:13:12.170Z,57.65
2022-08-09T06:15:44.612Z,57.07
2022-08-09T06:18:13.618Z,56.52
2022-08-09T06:20:42.608Z,56.59
2022-08-09T06:23:11.994Z,57.15
2022-08-09T06:25:38.762Z,58.51
2022-08-09T06:28:07.589Z,58.31
2022-08-09T06:30:34.449Z,58.57
2022-08-09T06:33:13.263Z,59.38
2022-08-09T06:35:57.361Z,57.57
2022-08-09T06:38:36.336Z,56.62
2022-08-09T06:41:13.503Z,55.97
2022-08-09T06:43:46.446Z,55.48
2022-08-09T06:46:39.134Z,55.64
2022-08-09T06:49:00.390Z,56.71
2022-08-09T06:51:27.081Z,55.05
2022-08-09T06:53:55.471Z,56.34
2022-08-09T06:56:30.698Z,55.39
2022-08-09T07:00:56.455Z,56.06
2022-08-09T07:01:54.073Z,56.23
2022-08-09T07:04:25.027Z,55.09
2022-08-09T07:07:00.198Z,55.23
2022-08-09T07:09:54.233Z,56.17
2022-08-09T07:12:17.951Z,55.39
2022-08-09T07:14:51.278Z,55.86
2022-08-09T07:17:21.595Z,55.12
2022-08-09T07:19:50.922Z,53.91
2022-08-09T07:22:34.795Z,53.34
2022-08-09T07:25:05.346Z,53.39
2022-08-09T07:27:43.227Z,54.76
2022-08-09T07:30:21.787Z,53.36
2022-08-09T07:32:51.528Z,54.20
2022-08-09T07:35:19.145Z,53.54
2022-08-09T07:37:46.236Z,55.09
2022-08-09T07:40:18.500Z,53.64
2022-08-09T07:42:56.952Z,53.80
2022-08-09T07:45:40.393Z,54.64
2022-08-09T07:48:28.498Z,54.02
2022-08-09T07:51:03.025Z,53.33
2022-08-09T07:54:04.916Z,52.79
2022-08-09T07:56:27.010Z,52.68
2022-08-09T07:58:55.393Z,52.73
2022-08-09T08:01:28.471Z,53.36
2022-08-09T08:04:00.451Z,53.88
2022-08-09T08:06:32.073Z,52.15
2022-08-09T08:09:04.499Z,54.54
2022-08-09T08:12:10.416Z,56.85
2022-08-09T08:14:18.397Z,58.94
2022-08-09T08:17:00.620Z,58.90
2022-08-09T08:19:34.347Z,58.49
2022-08-09T08:22:01.695Z,58.88
2022-08-09T08:24:34.144Z,58.28
2022-08-09T08:27:16.501Z,57.41
2022-08-09T08:29:48.407Z,59.53
2022-08-09T08:32:18.963Z,57.72
2022-08-09T08:34:51.945Z,57.84
2022-08-09T08:37:21.792Z,57.78
2022-08-09T08:39:51.664Z,59.93
2022-08-09T08:42:18.356Z,58.80
2022-08-09T08:44:57.648Z,59.14
2022-08-09T08:47:29.381Z,55.34
2022-08-09T08:49:58.332Z,56.63
2022-08-09T08:52:58.267Z,55.25
2022-08-09T08:55:19.025Z,54.70
2022-08-09T08:57:57.388Z,54.94
2022-08-09T09:00:30.194Z,55.03
2022-08-09T09:03:08.888Z,53.92
2022-08-09T09:05:58.222Z,53.04
2022-08-09T09:08:30.847Z,52.43
2022-08-09T09:11:02.679Z,52.35
2022-08-09T09:13:41.745Z,52.96
2022-08-09T09:16:18.413Z,51.88
2022-08-09T09:19:15.667Z,51.74
2022-08-09T09:22:15.739Z,53.83
2022-08-09T09:24:59.103Z,51.64
2022-08-09T09:28:05.507Z,52.89
2022-08-09T09:30:47.388Z,51.78
2022-08-09T09:33:16.277Z,52.46
2022-08-09T09:36:02.410Z,51.41
2022-08-09T09:38:42.764Z,53.16
2022-08-09T09:41:10.691Z,52.75
2022-08-09T09:44:10.162Z,54.60
2022-08-09T09:46:41.753Z,51.33
2022-08-09T09:49:11.672Z,49.48
2022-08-09T09:51:40.569Z,50.82
2022-08-09T09:54:21.102Z,49.98
2022-08-09T09:58:00.280Z,48.73
2022-08-09T09:59:36.073Z,50.74
2022-08-09T10:02:02.598Z,47.87
2022-08-09T10:04:30.875Z,50.98
2022-08-09T10:06:58.406Z,48.29
2022-08-09T10:09:48.458Z,48.88
2022-08-09T10:12:34.678Z,49.55
2022-08-09T10:15:17.620Z,48.71
2022-08-09T10:17:56.362Z,49.43
2022-08-09T10:20:33.095Z,49.94
2022-08-09T10:23:17.187Z,48.54
2022-08-09T10:26:06.123Z,49.76
2022-08-09T10:28:34.226Z,48.11
2022-08-09T10:34:10.159Z,46.38
2022-08-09T10:36:36.400Z,45.35
2022-08-09T10:39:03.645Z,48.66
2022-08-09T10:41:40.459Z,46.16
2022-08-09T10:46:55.672Z,46.48
2022-08-09T10:49:51.720Z,47.16
2022-08-09T10:52:46.371Z,46.18
2022-08-09T10:55:24.236Z,45.25
2022-08-09T10:57:55.448Z,44.68
2022-08-09T11:00:30.989Z,45.46
2022-08-09T11:03:10.914Z,45.78
2022-08-09T11:06:15.973Z,48.56
2022-08-09T11:08:47.992Z,45.98
2022-08-09T11:11:20.097Z,45.23
2022-08-09T11:13:53.677Z,44.27
2022-08-09T11:16:37.018Z,45.01
2022-08-09T11:19:09.788Z,45.34
2022-08-09T11:22:04.905Z,46.99
2022-08-09T11:24:57.934Z,45.34
2022-08-09T11:28:05.274Z,45.31
2022-08-09T11:30:36.205Z,42.97
2022-08-09T11:33:16.637Z,43.71
2022-08-09T11:35:49.810Z,46.10
2022-08-09T11:38:32.196Z,43.64
2022-08-09T11:41:05.377Z,45.52
2022-08-09T11:43:39.605Z,44.45
2022-08-09T11:46:06.652Z,43.17
2022-08-09T11:48:50.805Z,43.28
2022-08-09T11:52:49.292Z,43.31
2022-08-09T11:54:27.754Z,43.96
2022-08-09T11:57:56.399Z,43.08
2022-08-09T12:00:24.676Z,43.00
2022-08-09T12:02:54.608Z,43.40
2022-08-09T12:05:22.837Z,43.22
2022-08-09T12:07:50.065Z,42.82
2022-08-09T12:10:38.416Z,44.40
2022-08-09T12:14:07.571Z,44.13
2022-08-09T12:16:02.426Z,43.84
2022-08-09T12:18:33.508Z,42.48
2022-08-09T12:21:02.603Z,43.11
2022-08-09T12:23:58.005Z,43.99
2022-08-09T12:26:19.583Z,44.46
2022-08-09T12:29:10.809Z,43.87
2022-08-09T12:32:02.653Z,44.25
2022-08-09T12:34:41.136Z,43.17
2022-08-09T12:37:21.549Z,43.20
2022-08-09T12:40:08.558Z,42.71
2022-08-09T12:42:36.238Z,41.91
2022-08-09T12:45:32.373Z,42.75
2022-08-09T12:47:52.495Z,44.01
2022-08-09T12:50:19.862Z,43.09
2022-08-09T12:53:17.441Z,41.49
2022-08-09T12:56:12.574Z,42.18
2022-08-09T12:58:24.418Z,41.79
2022-08-09T13:00:55.161Z,45.01
2022-08-09T13:03:53.043Z,41.71
2022-08-09T13:06:34.539Z,43.30
2022-08-09T13:09:22.826Z,43.32
2022-08-09T13:11:52.699Z,43.96
2022-08-09T13:14:43.786Z,41.37
2022-08-09T13:17:16.363Z,43.49
2022-08-09T13:20:14.341Z,42.15
2022-08-09T13:23:05.740Z,43.49
2022-08-09T13:25:52.944Z,44.36
2022-08-09T13:28:34.486Z,42.64
2022-08-09T13:32:14.963Z,41.77
2022-08-09T13:33:54.387Z,42.88
2022-08-09T13:36:40.188Z,43.04
2022-08-09T13:41:17.172Z,41.90
2022-08-09T13:42:12.029Z,42.23
2022-08-09T13:44:42.679Z,42.26
2022-08-09T13:47:27.673Z,42.58
2022-08-09T13:50:18.230Z,42.45
2022-08-09T13:52:55.958Z,43.41
2022-08-09T13:55:22.780Z,43.34
2022-08-09T13:57:56.332Z,43.89
2022-08-09T14:00:28.345Z,44.46
2022-08-09T14:03:16.958Z,43.49
2022-08-09T14:05:59.170Z,44.27
2022-08-09T14:08:29.213Z,44.79
2022-08-09T14:10:57.077Z,44.44
2022-08-09T14:14:16.418Z,44.19
2022-08-09T14:16:14.004Z,44.78
2022-08-09T14:18:43.189Z,45.27
2022-08-09T14:21:17.249Z,45.64
2022-08-09T14:23:53.738Z,45.56
2022-08-09T14:26:21.593Z,45.93
2022-08-09T14:28:47.979Z,46.08
2022-08-09T14:31:14.528Z,45.47
2022-08-09T14:33:41.888Z,45.82
2022-08-09T14:36:20.341Z,43.29
2022-08-09T14:38:52.818Z,45.06
2022-08-09T14:41:34.825Z,45.28
2022-08-09T14:44:07.474Z,44.71
2022-08-09T14:46:54.919Z,43.33
2022-08-09T14:49:25.472Z,43.00
2022-08-09T14:51:53.287Z,43.46
2022-08-09T14:54:28.043Z,43.85
2022-08-09T14:56:57.886Z,44.51
2022-08-09T14:59:24.760Z,43.75
2022-08-09T15:01:53.499Z,43.18
2022-08-09T15:04:20.040Z,43.32
2022-08-09T15:06:50.468Z,43.40
2022-08-09T15:10:03.516Z,43.76
2022-08-09T15:12:08.053Z,44.47
2022-08-09T15:14:38.562Z,44.21
2022-08-09T15:17:09.095Z,43.46
2022-08-09T15:19:36.490Z,44.43
2022-08-09T15:22:03.384Z,42.59
2022-08-09T15:24:29.919Z,44.02
2022-08-09T15:26:56.443Z,43.45
2022-08-09T15:30:56.975Z,44.63
2022-08-09T15:32:29.134Z,44.85
2022-08-09T15:34:59.705Z,44.76
2022-08-09T15:37:56.171Z,44.57
2022-08-09T15:40:25.374Z,42.96
2022-08-09T15:42:59.057Z,43.43
2022-08-09T15:45:29.425Z,43.64
2022-08-09T15:48:05.619Z,44.00
2022-08-09T15:50:39.185Z,45.59
2022-08-09T15:53:18.838Z,44.11
2022-08-09T15:56:04.654Z,44.46
2022-08-09T15:58:39.383Z,45.47
2022-08-09T16:01:06.140Z,43.83
2022-08-09T16:03:38.418Z,43.02
2022-08-09T16:06:29.274Z,44.14
2022-08-09T16:09:01.195Z,44.58
2022-08-09T16:11:33.099Z,44.63
2022-08-09T16:14:06.538Z,44.47
2022-08-09T16:16:37.075Z,43.98
2022-08-09T16:19:08.775Z,44.77
2022-08-09T16:21:40.182Z,45.14
2022-08-09T16:24:20.119Z,45.23
2022-08-09T16:26:59.299Z,44.64
2022-08-09T16:29:37.299Z,45.41
2022-08-09T16:32:18.159Z,45.57
2022-08-09T16:34:56.417Z,45.64
2022-08-09T16:37:55.830Z,45.83
2022-08-09T16:40:13.369Z,45.98
2022-08-09T16:42:45.555Z,45.82
2022-08-09T16:45:17.286Z,46.05
2022-08-09T16:48:41.087Z,45.39
2022-08-09T16:50:33.945Z,46.32
2022-08-09T16:53:02.115Z,45.78
2022-08-09T16:55:44.331Z,45.21
2022-08-09T16:58:17.026Z,45.60
2022-08-09T17:00:43.719Z,46.43
2022-08-09T17:03:21.292Z,47.02
2022-08-09T17:06:08.591Z,47.02
2022-08-09T17:09:02.967Z,48.05
2022-08-09T17:11:37.684Z,49.08
2022-08-09T17:14:26.057Z,49.07
2022-08-09T17:17:00.115Z,49.08
2022-08-09T17:19:47.607Z,49.49
2022-08-09T17:22:24.715Z,49.91
2022-08-09T17:24:56.092Z,50.26
2022-08-09T17:27:31.182Z,50.33
2022-08-09T17:29:57.657Z,50.58
2022-08-09T17:32:37.425Z,50.94
2022-08-09T17:35:12.119Z,51.34
2022-08-09T17:38:11.896Z,50.89
2022-08-09T17:40:28.147Z,51.94
2022-08-09T17:42:59.220Z,51.90
2022-08-09T17:45:45.511Z,51.74
2022-08-09T17:48:14.806Z,52.67
2022-08-09T17:50:42.107Z,52.40
2022-08-09T17:53:22.697Z,52.82
2022-08-09T17:55:54.120Z,52.93
2022-08-09T17:58:26.675Z,52.89
2022-08-09T18:00:56.379Z,53.22
2022-08-09T18:03:24.623Z,53.19
2022-08-09T18:05:52.998Z,53.41
2022-08-09T18:08:21.988Z,54.10
2022-08-09T18:11:02.080Z,54.10
2022-08-09T18:13:39.731Z,54.06
2022-08-09T18:16:30.160Z,54.05
2022-08-09T18:19:03.451Z,54.89
2022-08-09T18:21:31.743Z,54.72
2022-08-09T18:24:09.788Z,55.17
2022-08-09T18:26:46.789Z,55.31
2022-08-09T18:30:40.182Z,56.04
2022-08-09T18:32:05.303Z,56.48
2022-08-09T18:34:34.938Z,56.33
2022-08-09T18:37:03.044Z,55.97
2022-08-09T18:39:32.455Z,55.77
2022-08-09T18:42:01.703Z,56.55
2022-08-09T18:44:28.323Z,56.74
2022-08-09T18:47:06.237Z,56.53
2022-08-09T18:49:43.723Z,56.98
2022-08-09T18:52:15.747Z,57.32
2022-08-09T18:54:52.502Z,57.84
2022-08-09T18:57:19.812Z,58.40
2022-08-09T18:59:54.524Z,58.85
2022-08-09T19:02:30.765Z,58.87
2022-08-09T19:05:03.969Z,59.52
2022-08-09T19:07:43.232Z,59.22
2022-08-09T19:10:26.567Z,59.32
2022-08-09T19:12:59.241Z,59.14
2022-08-09T19:15:39.427Z,59.85
2022-08-09T19:18:06.225Z,59.89
2022-08-09T19:20:43.772Z,60.28
2022-08-09T19:23:16.491Z,60.61
2022-08-09T19:26:01.955Z,60.73
2022-08-09T19:28:29.984Z,61.19
2022-08-09T19:30:57.811Z,60.96
2022-08-09T19:33:24.303Z,61.06
2022-08-09T19:35:58.454Z,61.42
2022-08-09T19:38:26.380Z,61.88
2022-08-09T19:40:53.855Z,62.28
2022-08-09T19:44:00.831Z,62.25
2022-08-09T19:46:08.509Z,62.40
2022-08-09T19:49:00.421Z,62.59
2022-08-09T19:51:27.948Z,62.82
2022-08-09T19:53:58.005Z,62.99
2022-08-09T19:56:29.382Z,63.47
2022-08-09T19:59:40.548Z,63.58
2022-08-09T20:01:53.070Z,63.91
2022-08-09T20:04:36.397Z,63.91
2022-08-09T20:07:06.239Z,63.66
2022-08-09T20:09:44.360Z,63.94
2022-08-09T20:12:27.023Z,64.20
2022-08-09T20:15:02.082Z,64.28
2022-08-09T20:17:41.362Z,64.29
2022-08-09T20:20:15.035Z,64.73
2022-08-09T20:22:44.727Z,64.78
2022-08-09T20:25:13.072Z,64.85
2022-08-09T20:27:48.998Z,64.98
2022-08-09T20:30:17.903Z,65.12
2022-08-09T20:32:52.057Z,65.31
2022-08-09T20:35:19.625Z,65.67
2022-08-09T20:38:22.135Z,65.40
2022-08-09T20:40:32.595Z,65.20
2022-08-09T20:43:18.223Z,65.74
2022-08-09T20:45:56.672Z,65.91
2022-08-09T20:48:30.839Z,66.09
2022-08-09T20:50:58.458Z,65.87
2022-08-09T20:53:35.384Z,66.05
2022-08-09T20:56:07.199Z,66.22
2022-08-09T20:58:35.864Z,66.33
2022-08-09T21:01:33.698Z,66.53
2022-08-09T21:05:49.831Z,66.71
2022-08-09T21:06:41.425Z,66.63
2022-08-09T21:09:13.973Z,66.38
2022-08-09T21:14:30.772Z,67.08
2022-08-09T21:16:59.306Z,66.94
2022-08-09T21:20:19.619Z,67.18
2022-08-09T21:22:36.286Z,67.49
2022-08-09T21:25:17.807Z,67.62
2022-08-09T21:27:50.860Z,67.69
2022-08-09T21:30:18.945Z,67.58
2022-08-09T21:32:48.504Z,67.67
2022-08-09T21:35:14.952Z,67.86
2022-08-09T21:37:58.804Z,67.81
2022-08-09T21:40:30.142Z,67.40
2022-08-09T21:42:58.663Z,67.64
2022-08-09T21:45:25.898Z,67.63
2022-08-09T21:47:52.632Z,67.78
2022-08-09T21:50:35.793Z,67.90
2022-08-09T21:53:06.470Z,68.26
2022-08-09T21:55:46.531Z,68.24
2022-08-09T21:58:13.529Z,68.01
2022-08-09T22:00:41.066Z,68.57
2022-08-09T22:03:19.249Z,68.67
2022-08-09T22:05:51.884Z,69.31
2022-08-09T22:08:18.406Z,69.35
2022-08-09T22:11:00.365Z,69.17
2022-08-09T22:13:35.704Z,69.75
2022-08-09T22:16:08.313Z,69.83
2022-08-09T22:18:37.091Z,70.33
2022-08-09T22:21:10.046Z,70.39
2022-08-09T22:23:58.957Z,70.47
2022-08-09T22:26:35.449Z,70.71
2022-08-09T22:29:07.529Z,70.67
2022-08-09T22:31:36.039Z,70.74
2022-08-09T22:34:02.690Z,70.76
2022-08-09T22:36:29.112Z,70.78
2022-08-09T22:39:46.774Z,70.87
2022-08-09T22:41:58.842Z,71.23
2022-08-09T22:44:25.817Z,71.70
2022-08-09T22:48:16.014Z,71.37
2022-08-09T22:49:47.059Z,71.24
2022-08-09T22:52:13.720Z,71.38
2022-08-09T22:54:42.246Z,71.16
2022-08-09T22:57:11.876Z,71.42
2022-08-09T22:59:55.833Z,71.44
2022-08-09T23:02:25.079Z,71.43
2022-08-09T23:04:53.863Z,71.57
2022-08-09T23:08:22.493Z,71.53
2022-08-09T23:10:26.542Z,71.78
2022-08-09T23:12:52.944Z,71.59
2022-08-09T23:15:19.359Z,71.60
2022-08-09T23:17:45.725Z,71.65
2022-08-09T23:20:12.143Z,71.66
2022-08-09T23:22:38.594Z,72.00
2022-08-09T23:25:06.238Z,72.15
2022-08-09T23:27:33.415Z,72.24
2022-08-09T23:30:00.137Z,71.91
2022-08-09T23:32:26.689Z,72.29
2022-08-09T23:34:53.123Z,72.71
2022-08-09T23:37:21.509Z,72.75
2022-08-09T23:40:01.579Z,72.81
2022-08-09T23:42:28.305Z,73.35
2022-08-09T23:44:54.771Z,73.91
2022-08-09T23:47:21.256Z,74.19
2022-08-09T23:49:47.652Z,74.55
2022-08-09T23:52:14.147Z,74.78
2022-08-09T23:54:44.408Z,75.07
2022-08-09T23:57:12.056Z,75.37
2022-08-09T23:59:59.525Z,75.85
